Time;durP1;ratioP1;P1;durP2;ratioP2;P2;SDS_P1;SDS_P2;PMS_P1;PMS_P2;Temp;Humidity;BMP_temperature;BMP_pressure;BME280_temperature;BME280_humidity;BME280_pressure;Samples;Min_cycle;Max_cycle;Signal;HPM_P1;HPM_P2
2023/06/24 00:00:07;;;;;;;10.30;10.00;;;16.80;99.90;;;;;;5045548;28;20223;-80
2023/06/24 00:02:37;;;;;;;10.15;9.85;;;16.80;99.90;;;;;;5046243;28;20266;-80
2023/06/24 00:05:08;;;;;;;9.95;9.65;;;16.80;99.90;;;;;;5045705;28;20305;-78
2023/06/24 00:07:44;;;;;;;10.10;9.80;;;16.80;99.90;;;;;;5051672;28;20234;-77
2023/06/24 00:10:13;;;;;;;10.20;9.90;;;16.70;99.90;;;;;;5043983;28;20241;-79
2023/06/24 00:12:42;;;;;;;10.20;9.90;;;16.70;99.90;;;;;;5045758;28;20215;-80
2023/06/24 00:15:11;;;;;;;9.93;9.63;;;16.80;99.90;;;;;;5044732;28;20232;-79
2023/06/24 00:17:41;;;;;;;10.10;9.80;;;16.70;99.90;;;;;;5044173;28;20242;-80
2023/06/24 00:20:13;;;;;;;9.90;9.60;;;16.70;99.90;;;;;;5043067;28;20731;-79
2023/06/24 00:22:48;;;;;;;10.10;9.80;;;16.70;99.90;;;;;;5045601;28;20231;-79
2023/06/24 00:25:16;;;;;;;9.90;9.60;;;16.70;99.90;;;;;;5045499;28;20234;-79
2023/06/24 00:27:43;;;;;;;10.27;9.98;;;16.70;99.90;;;;;;5045451;28;20228;-80
2023/06/24 00:30:12;;;;;;;10.15;9.85;;;16.60;99.90;;;;;;5044828;28;20251;-81
2023/06/24 00:32:42;;;;;;;9.95;9.65;;;16.60;99.90;;;;;;5045396;28;20227;-80
2023/06/24 00:35:12;;;;;;;10.13;9.82;;;16.60;99.90;;;;;;5044356;28;20318;-80
2023/06/24 00:37:39;;;;;;;9.70;9.40;;;16.60;99.90;;;;;;5044851;28;20231;-80
2023/06/24 00:40:11;;;;;;;9.70;9.40;;;16.60;99.90;;;;;;5050746;28;20219;-80
2023/06/24 00:42:38;;;;;;;9.60;9.30;;;16.50;99.90;;;;;;5043325;28;20219;-78
2023/06/24 00:45:08;;;;;;;9.60;9.30;;;16.50;99.90;;;;;;5040551;28;20245;-78
2023/06/24 00:47:35;;;;;;;9.70;9.40;;;16.50;99.90;;;;;;5041609;28;20231;-79
2023/06/24 00:50:05;;;;;;;9.90;9.60;;;16.50;99.90;;;;;;5040382;28;20322;-78
2023/06/24 00:52:33;;;;;;;9.70;9.40;;;16.40;99.90;;;;;;5040503;28;20299;-79
2023/06/24 00:55:02;;;;;;;9.60;9.30;;;16.40;99.90;;;;;;5040224;28;20239;-78
2023/06/24 00:57:30;;;;;;;9.55;9.25;;;16.30;99.90;;;;;;5041228;28;20234;-78
2023/06/24 00:59:59;;;;;;;9.60;9.30;;;16.30;99.90;;;;;;5040702;28;20237;-80
2023/06/24 01:02:27;;;;;;;9.50;9.20;;;16.20;99.90;;;;;;5040751;28;20314;-78
2023/06/24 01:04:56;;;;;;;9.70;9.40;;;16.20;99.90;;;;;;5040448;28;20270;-78
2023/06/24 01:07:26;;;;;;;9.40;9.10;;;16.20;99.90;;;;;;5041860;28;20235;-78
2023/06/24 01:09:55;;;;;;;9.68;9.38;;;16.10;99.90;;;;;;5041489;28;21121;-78
2023/06/24 01:12:22;;;;;;;9.80;9.50;;;16.10;99.90;;;;;;5040881;28;20219;-78
2023/06/24 01:14:50;;;;;;;9.70;9.40;;;16.00;99.90;;;;;;5040489;28;20254;-78
2023/06/24 01:17:24;;;;;;;9.50;9.20;;;16.00;99.90;;;;;;5040046;28;20322;-78
2023/06/24 01:20:07;;;;;;;9.40;9.10;;;16.00;99.90;;;;;;5040813;28;20222;-78
2023/06/24 01:23:07;;;;;;;9.50;9.20;;;15.90;99.90;;;;;;5046088;28;20235;-78
2023/06/24 01:26:00;;;;;;;9.40;9.10;;;15.90;99.90;;;;;;5049745;28;20224;-78
2023/06/24 01:29:06;;;;;;;9.40;9.10;;;15.80;99.90;;;;;;5061293;28;20232;-78
2023/06/24 01:31:43;;;;;;;9.32;9.02;;;15.80;99.90;;;;;;5031163;28;20227;-77
2023/06/24 01:34:22;;;;;;;9.25;8.95;;;15.80;99.90;;;;;;5063119;28;20246;-78
2023/06/24 01:37:01;;;;;;;9.40;9.10;;;15.70;99.90;;;;;;5059200;28;20214;-77
2023/06/24 01:39:33;;;;;;;9.30;9.00;;;15.70;99.90;;;;;;5066460;28;20275;-78
2023/06/24 01:42:08;;;;;;;9.27;8.98;;;15.60;99.90;;;;;;5063222;28;20321;-78
2023/06/24 01:44:39;;;;;;;9.10;8.80;;;15.60;99.90;;;;;;5072859;22;20237;-87
2023/06/24 01:47:17;;;;;;;9.20;8.90;;;15.60;99.90;;;;;;5032895;28;20263;-87
2023/06/24 01:49:47;;;;;;;9.30;9.00;;;15.50;99.90;;;;;;5032374;28;20322;-87
2023/06/24 01:52:18;;;;;;;9.38;9.07;;;15.50;99.90;;;;;;5038404;28;20326;-87
2023/06/24 01:54:56;;;;;;;9.20;8.90;;;15.50;99.90;;;;;;5033311;28;20323;-87
2023/06/24 01:57:32;;;;;;;9.40;9.10;;;15.50;99.90;;;;;;5026119;28;20240;-86
2023/06/24 02:00:05;;;;;;;9.40;9.10;;;15.40;99.90;;;;;;5036969;28;20242;-86
2023/06/24 02:02:39;;;;;;;9.00;8.70;;;15.40;99.90;;;;;;5024175;28;20760;-87
2023/06/24 02:05:10;;;;;;;9.15;8.85;;;15.40;99.90;;;;;;5023876;28;20236;-87
2023/06/24 02:07:40;;;;;;;9.20;8.90;;;15.30;99.90;;;;;;5023741;28;20319;-87
2023/06/24 02:10:15;;;;;;;9.30;9.00;;;15.30;99.90;;;;;;5024193;28;20228;-87
2023/06/24 02:12:45;;;;;;;9.43;9.13;;;15.20;99.90;;;;;;5023839;28;20239;-87
2023/06/24 02:18:06;;;;;;;9.20;8.90;;;15.20;99.90;;;;;;5022163;28;20242;-86
2023/06/24 02:20:36;;;;;;;9.45;9.15;;;15.20;99.90;;;;;;5023741;28;20224;-87
2023/06/24 02:23:14;;;;;;;9.23;8.93;;;15.10;99.90;;;;;;5023623;28;20243;-88
2023/06/24 02:25:43;;;;;;;9.27;8.98;;;15.10;99.90;;;;;;5023267;28;20224;-88
2023/06/24 02:28:14;;;;;;;9.15;8.85;;;15.10;99.90;;;;;;5023566;28;20232;-87
2023/06/24 02:36:14;;;;;;;9.18;8.88;;;14.90;99.90;;;;;;5023190;28;20220;-87
2023/06/24 02:38:43;;;;;;;9.30;9.00;;;14.90;99.90;;;;;;5031751;28;20228;-87
2023/06/24 02:41:13;;;;;;;9.02;8.73;;;14.90;99.90;;;;;;5024214;28;20224;-88
2023/06/24 02:43:42;;;;;;;9.30;9.00;;;14.80;99.90;;;;;;5023091;28;20236;-87
2023/06/24 02:46:11;;;;;;;9.40;9.10;;;14.80;99.90;;;;;;5023920;28;20216;-88
2023/06/24 02:49:00;;;;;;;9.50;9.20;;;14.80;99.90;;;;;;5023539;28;20320;-88
2023/06/24 02:51:30;;;;;;;9.52;9.23;;;14.80;99.90;;;;;;5023565;28;20247;-88
2023/06/24 02:53:59;;;;;;;9.48;9.18;;;14.80;99.90;;;;;;5023280;28;20251;-88
2023/06/24 02:56:29;;;;;;;9.63;9.32;;;14.70;99.90;;;;;;5024080;28;20247;-88
2023/06/24 02:58:59;;;;;;;9.67;9.37;;;14.70;99.90;;;;;;5023719;28;20232;-87
2023/06/24 03:01:28;;;;;;;9.47;9.17;;;14.70;99.90;;;;;;5033276;28;20268;-87
2023/06/24 03:03:58;;;;;;;9.57;9.27;;;14.60;99.90;;;;;;5037045;28;20275;-86
2023/06/24 03:06:27;;;;;;;9.67;9.37;;;14.60;99.90;;;;;;5033028;28;20247;-87
2023/06/24 03:08:56;;;;;;;9.70;9.40;;;14.50;99.90;;;;;;5027529;28;20283;-87
2023/06/24 03:11:24;;;;;;;9.93;9.63;;;14.50;99.90;;;;;;5038771;28;20262;-87
2023/06/24 03:13:53;;;;;;;9.60;9.30;;;14.40;99.90;;;;;;5024702;28;20224;-87
2023/06/24 03:16:23;;;;;;;9.60;9.30;;;14.40;99.90;;;;;;5024504;28;20234;-87
2023/06/24 03:18:51;;;;;;;9.67;9.37;;;14.40;99.90;;;;;;5024776;28;20228;-87
2023/06/24 03:21:29;;;;;;;9.43;9.13;;;14.40;99.90;;;;;;5024520;28;20228;-88
2023/06/24 03:23:59;;;;;;;9.70;9.40;;;14.40;99.90;;;;;;5023484;28;20307;-88
2023/06/24 03:26:39;;;;;;;9.57;9.27;;;14.30;99.90;;;;;;5023722;28;20231;-87
2023/06/24 03:29:09;;;;;;;9.50;9.20;;;14.30;99.90;;;;;;5023421;28;20236;-87
2023/06/24 03:31:37;;;;;;;9.40;9.10;;;14.30;99.90;;;;;;5023944;28;20233;-87
2023/06/24 03:34:08;;;;;;;9.40;9.10;;;14.30;99.90;;;;;;5023397;28;20240;-88
2023/06/24 03:36:44;;;;;;;9.50;9.20;;;14.30;99.90;;;;;;5023067;28;20219;-87
2023/06/24 03:39:14;;;;;;;9.20;8.90;;;14.30;99.90;;;;;;5023654;28;20295;-88
2023/06/24 03:41:43;;;;;;;9.60;9.30;;;14.30;99.90;;;;;;5023132;28;20258;-86
2023/06/24 03:44:12;;;;;;;9.40;9.10;;;14.30;99.90;;;;;;5022588;28;20236;-87
2023/06/24 03:46:41;;;;;;;9.30;9.00;;;14.20;99.90;;;;;;5024599;28;20284;-87
2023/06/24 03:49:11;;;;;;;9.10;8.80;;;14.20;99.90;;;;;;5025216;28;20224;-88
2023/06/24 03:51:51;;;;;;;9.17;8.87;;;14.20;99.90;;;;;;5024740;28;20247;-86
2023/06/24 03:54:21;;;;;;;9.13;8.83;;;14.20;99.90;;;;;;5022924;28;20232;-87
2023/06/24 03:56:48;;;;;;;9.03;8.73;;;14.10;99.90;;;;;;5023247;28;20289;-87
2023/06/24 03:59:20;;;;;;;9.20;8.90;;;14.10;99.90;;;;;;5022566;28;20292;-87
2023/06/24 04:01:51;;;;;;;9.10;8.80;;;14.10;99.90;;;;;;5023098;28;20263;-87
2023/06/24 04:04:20;;;;;;;9.10;8.80;;;14.10;99.90;;;;;;5022764;28;20248;-87
2023/06/24 04:06:58;;;;;;;9.20;8.90;;;14.20;99.90;;;;;;5023131;28;20287;-87
2023/06/24 04:09:26;;;;;;;9.03;8.73;;;14.10;99.90;;;;;;5025271;28;20232;-87
2023/06/24 04:11:54;;;;;;;9.00;8.70;;;14.10;99.90;;;;;;5028146;28;20295;-87
2023/06/24 04:14:24;;;;;;;9.03;8.73;;;14.20;99.90;;;;;;5023608;28;20232;-87
2023/06/24 04:16:53;;;;;;;9.20;8.90;;;14.20;99.90;;;;;;5023032;28;20292;-88
2023/06/24 04:19:28;;;;;;;9.13;8.83;;;14.20;99.90;;;;;;5022665;28;20274;-86
2023/06/24 04:22:04;;;;;;;9.60;9.30;;;14.20;99.90;;;;;;5021882;28;20231;-87
2023/06/24 04:24:32;;;;;;;9.30;9.00;;;14.30;99.90;;;;;;5002714;28;20248;-87
2023/06/24 04:27:01;;;;;;;9.00;8.70;;;14.30;99.90;;;;;;5006164;28;20319;-88
2023/06/24 04:29:30;;;;;;;9.00;8.70;;;14.30;99.90;;;;;;5038919;28;20235;-87
2023/06/24 04:31:59;;;;;;;9.20;8.90;;;14.20;99.90;;;;;;5042411;28;20236;-87
2023/06/24 07:19:41;;;;;;;11.00;10.70;;;20.40;99.90;;;;;;5041861;28;20239;-82
2023/06/24 07:22:19;;;;;;;10.77;10.48;;;20.50;99.90;;;;;;5043801;28;20297;-82
2023/06/24 07:25:00;;;;;;;10.80;10.50;;;20.60;99.90;;;;;;5043482;28;20249;-83
2023/06/24 07:30:30;;;;;;;10.75;10.45;;;20.70;99.90;;;;;;5042515;28;20266;-86
2023/06/24 07:33:05;;;;;;;10.77;10.48;;;20.90;99.90;;;;;;5042915;28;20286;-91
2023/06/24 07:35:39;;;;;;;10.70;10.40;;;21.00;99.90;;;;;;5041975;28;20261;-87
2023/06/24 07:38:07;;;;;;;10.95;10.65;;;21.00;99.90;;;;;;5043114;28;20230;-85
2023/06/24 07:40:35;;;;;;;10.90;10.60;;;21.00;99.90;;;;;;5042516;28;20238;-86
2023/06/24 07:43:14;;;;;;;10.90;10.60;;;21.10;99.90;;;;;;5042482;28;20290;-88
2023/06/24 07:45:42;;;;;;;10.65;10.35;;;21.20;99.90;;;;;;5060383;22;20247;-76
2023/06/24 07:48:09;;;;;;;10.63;10.32;;;21.30;99.90;;;;;;5039020;28;20242;-77
2023/06/24 07:50:39;;;;;;;10.52;10.23;;;21.40;99.90;;;;;;5038922;28;20366;-77
2023/06/24 07:53:07;;;;;;;10.80;10.50;;;21.50;99.90;;;;;;5042017;28;20326;-76
2023/06/24 07:55:34;;;;;;;10.80;10.50;;;21.60;99.90;;;;;;5036483;28;20236;-76
2023/06/24 07:58:02;;;;;;;10.70;10.40;;;21.70;99.90;;;;;;5037654;28;20236;-78
2023/06/24 08:00:30;;;;;;;10.75;10.45;;;21.80;99.90;;;;;;5038004;28;20259;-75
2023/06/24 08:02:58;;;;;;;10.50;10.20;;;21.90;99.90;;;;;;5037899;28;20231;-75
2023/06/24 08:05:26;;;;;;;10.60;10.30;;;22.10;99.90;;;;;;5036801;28;20231;-77
2023/06/24 08:07:55;;;;;;;10.82;10.52;;;22.20;99.90;;;;;;5037452;28;20266;-77
2023/06/24 08:10:23;;;;;;;10.23;9.93;;;22.20;99.90;;;;;;5036400;28;20263;-76
2023/06/24 08:12:50;;;;;;;10.48;10.18;;;22.30;99.90;;;;;;5036258;28;20323;-76
2023/06/24 08:15:18;;;;;;;10.30;10.00;;;22.30;99.90;;;;;;5038075;28;20231;-77
2023/06/24 08:17:45;;;;;;;10.32;10.02;;;22.30;99.90;;;;;;5040681;28;20242;-77
2023/06/24 08:20:14;;;;;;;10.75;10.45;;;22.50;99.90;;;;;;5039710;28;20245;-77
2023/06/24 08:22:41;;;;;;;10.60;10.30;;;22.70;99.90;;;;;;5044571;28;20224;-77
2023/06/24 08:25:10;;;;;;;10.60;10.30;;;22.90;99.90;;;;;;5041561;28;20267;-76
2023/06/24 08:27:38;;;;;;;10.80;10.50;;;23.00;99.90;;;;;;5040472;28;20232;-76
2023/06/24 08:30:08;;;;;;;10.70;10.40;;;23.10;99.90;;;;;;5036130;28;20242;-76
2023/06/24 08:32:35;;;;;;;10.80;10.50;;;23.30;99.90;;;;;;5031181;28;20228;-76
2023/06/24 08:35:03;;;;;;;10.60;10.30;;;23.30;99.90;;;;;;5033056;28;20239;-76
2023/06/24 08:37:30;;;;;;;10.90;10.60;;;23.50;99.90;;;;;;5049246;28;20259;-75
2023/06/24 08:39:58;;;;;;;10.70;10.40;;;23.50;99.90;;;;;;5048336;28;20322;-76
2023/06/24 08:42:27;;;;;;;10.45;10.15;;;23.70;99.90;;;;;;5045899;28;20402;-76
2023/06/24 08:44:54;;;;;;;10.90;10.60;;;24.10;99.90;;;;;;5042933;28;20235;-76
2023/06/24 08:47:24;;;;;;;10.85;10.55;;;24.30;99.90;;;;;;5047658;28;20239;-76
2023/06/24 08:49:58;;;;;;;11.07;10.77;;;24.30;99.90;;;;;;5044005;28;20235;-76
2023/06/24 08:52:31;;;;;;;11.15;10.85;;;24.40;99.90;;;;;;5041326;28;20231;-76
2023/06/24 08:55:01;;;;;;;11.00;10.70;;;24.70;99.90;;;;;;5040724;28;20222;-78
2023/06/24 08:57:30;;;;;;;11.25;10.95;;;25.00;99.90;;;;;;5040351;28;20330;-76
2023/06/24 08:59:58;;;;;;;11.20;10.90;;;25.20;99.90;;;;;;5039833;28;20235;-75
2023/06/24 09:02:25;;;;;;;11.30;11.00;;;25.40;99.90;;;;;;5039991;28;20242;-76
2023/06/24 09:04:53;;;;;;;11.10;10.80;;;25.50;99.90;;;;;;5039751;28;20239;-76
2023/06/24 09:07:30;;;;;;;11.20;10.90;;;25.50;99.90;;;;;;5039408;28;20242;-76
2023/06/24 09:10:00;;;;;;;10.95;10.65;;;25.50;99.90;;;;;;5037296;28;20344;-76
2023/06/24 09:12:33;;;;;;;11.10;10.80;;;25.10;99.90;;;;;;5040481;28;20231;-74
2023/06/24 09:15:01;;;;;;;10.80;10.50;;;24.80;99.90;;;;;;5039895;28;20238;-75
2023/06/24 09:17:28;;;;;;;10.98;10.68;;;25.10;99.90;;;;;;5040667;28;20236;-75
2023/06/24 09:20:06;;;;;;;10.90;10.60;;;25.10;99.90;;;;;;5037878;28;20266;-75
2023/06/24 09:22:33;;;;;;;11.10;10.80;;;25.20;99.90;;;;;;5032497;28;20236;-76
2023/06/24 09:25:03;;;;;;;11.45;11.15;;;25.30;99.90;;;;;;5024161;28;20235;-76
2023/06/24 09:27:34;;;;;;;11.07;10.77;;;25.60;99.90;;;;;;5028786;28;20247;-76
2023/06/24 09:30:01;;;;;;;11.35;11.05;;;26.00;99.90;;;;;;5036372;28;20242;-76
2023/06/24 09:32:31;;;;;;;11.80;11.40;;;26.40;99.90;;;;;;5038064;28;20314;-75
2023/06/24 09:34:59;;;;;;;11.90;11.50;;;26.90;99.90;;;;;;5030313;28;20243;-75
2023/06/24 09:37:30;;;;;;;11.80;11.40;;;27.00;99.90;;;;;;5037277;28;20233;-75
2023/06/24 09:39:58;;;;;;;11.43;11.13;;;27.00;99.90;;;;;;5038129;28;20281;-75
2023/06/24 09:42:27;;;;;;;11.40;11.10;;;27.40;99.90;;;;;;5043391;28;20227;-75
2023/06/24 09:45:22;;;;;;;11.10;10.80;;;27.20;99.90;;;;;;5046916;28;20305;-76
2023/06/24 09:47:50;;;;;;;11.07;10.77;;;26.70;99.90;;;;;;5043935;28;20242;-77
2023/06/24 09:50:17;;;;;;;11.38;11.07;;;26.50;99.90;;;;;;5045516;28;20232;-77
2023/06/24 09:52:46;;;;;;;11.27;10.98;;;26.00;99.90;;;;;;5040712;28;20265;-77
2023/06/24 09:55:15;;;;;;;11.20;10.90;;;25.90;99.90;;;;;;5038247;28;20318;-76
2023/06/24 09:57:46;;;;;;;11.20;10.90;;;26.10;99.90;;;;;;5036581;28;20242;-76
2023/06/24 10:00:18;;;;;;;11.15;10.85;;;26.50;99.90;;;;;;5039143;28;20253;-76
2023/06/24 10:02:47;;;;;;;10.90;10.60;;;26.60;99.90;;;;;;5031119;28;20232;-78
2023/06/24 10:05:14;;;;;;;11.05;10.75;;;26.40;99.90;;;;;;5038142;28;20246;-73
2023/06/24 10:07:43;;;;;;;11.15;10.85;;;26.90;99.90;;;;;;5037470;28;20238;-75
2023/06/24 10:10:11;;;;;;;10.98;10.68;;;27.30;99.90;;;;;;5038197;28;20263;-75
2023/06/24 10:12:39;;;;;;;10.90;10.60;;;27.60;99.90;;;;;;5038947;28;20227;-77
2023/06/24 10:15:08;;;;;;;10.75;10.45;;;27.30;99.90;;;;;;5037458;28;20228;-75
2023/06/24 10:17:38;;;;;;;10.68;10.38;;;27.20;99.90;;;;;;5036684;28;20755;-74
2023/06/24 10:20:07;;;;;;;10.43;10.13;;;27.30;99.90;;;;;;5037719;28;20236;-74
2023/06/24 10:22:36;;;;;;;10.80;10.50;;;27.60;99.90;;;;;;5037254;28;20219;-74
2023/06/24 10:25:07;;;;;;;11.10;10.80;;;27.90;99.90;;;;;;5036461;28;20243;-75
2023/06/24 10:27:42;;;;;;;11.00;10.70;;;28.00;99.90;;;;;;5021509;28;20232;-74
2023/06/24 10:30:18;;;;;;;10.90;10.60;;;28.10;99.90;;;;;;5036234;28;20247;-76
2023/06/24 10:32:52;;;;;;;10.80;10.50;;;28.00;99.90;;;;;;5038623;28;20231;-75
2023/06/24 10:35:25;;;;;;;10.80;10.50;;;27.90;99.90;;;;;;5037547;28;20241;-77
2023/06/24 10:37:57;;;;;;;11.10;10.80;;;28.30;99.90;;;;;;5040071;28;20235;-79
2023/06/24 10:40:38;;;;;;;10.70;10.40;;;28.40;99.90;;;;;;5039585;28;20227;-76
2023/06/24 10:43:29;;;;;;;10.80;10.50;;;28.30;99.90;;;;;;5031824;28;20223;-74
2023/06/24 10:45:59;;;;;;;10.57;10.27;;;28.60;99.90;;;;;;5037089;28;20242;-74
2023/06/24 10:48:28;;;;;;;10.68;10.38;;;28.60;99.90;;;;;;5037277;28;20238;-75
2023/06/24 10:50:55;;;;;;;11.30;11.00;;;28.80;99.90;;;;;;5037013;28;20227;-75
2023/06/24 10:53:24;;;;;;;11.30;11.00;;;29.30;99.90;;;;;;5037662;28;20231;-76
2023/06/24 10:55:52;;;;;;;11.20;10.90;;;29.50;99.90;;;;;;5034351;28;20240;-79
2023/06/24 10:58:19;;;;;;;11.40;11.10;;;29.70;99.90;;;;;;5038130;28;20313;-79
2023/06/24 11:00:47;;;;;;;11.40;11.10;;;29.40;99.90;;;;;;5037612;28;20223;-83
2023/06/24 11:03:18;;;;;;;11.35;11.05;;;29.40;99.90;;;;;;5041647;28;20234;-77
2023/06/24 11:05:49;;;;;;;11.27;10.98;;;29.30;99.90;;;;;;5038627;28;20227;-77
2023/06/24 11:08:17;;;;;;;10.80;10.50;;;29.10;99.90;;;;;;5038764;28;20249;-77
2023/06/24 11:10:46;;;;;;;11.10;10.80;;;29.10;99.90;;;;;;5038507;28;20266;-76
2023/06/24 11:13:13;;;;;;;10.75;10.45;;;28.90;99.90;;;;;;5038568;28;20239;-77
2023/06/24 11:15:42;;;;;;;10.98;10.68;;;29.10;99.90;;;;;;5036988;28;20242;-76
2023/06/24 11:18:11;;;;;;;10.95;10.65;;;29.20;99.90;;;;;;5034524;28;20232;-77
2023/06/24 11:20:39;;;;;;;10.90;10.60;;;29.10;99.90;;;;;;5034378;28;20230;-78
2023/06/24 11:23:10;;;;;;;10.68;10.38;;;29.30;99.90;;;;;;5038107;28;20229;-78
2023/06/24 11:25:43;;;;;;;10.70;10.40;;;29.40;99.90;;;;;;5036872;28;20239;-78
2023/06/24 11:28:16;;;;;;;11.00;10.70;;;29.70;99.90;;;;;;5039227;28;20239;-77
2023/06/24 11:30:43;;;;;;;10.90;10.60;;;30.00;99.90;;;;;;5031349;28;20264;-77
2023/06/24 11:33:10;;;;;;;10.82;10.52;;;30.10;99.90;;;;;;5045803;28;20327;-78
2023/06/24 11:35:38;;;;;;;10.50;10.20;;;30.00;99.90;;;;;;5038549;28;20319;-78
2023/06/24 11:38:05;;;;;;;10.60;10.30;;;29.80;99.90;;;;;;5038859;28;20708;-77
2023/06/24 11:40:35;;;;;;;11.02;10.73;;;29.30;99.90;;;;;;5044868;28;20330;-77
2023/06/24 11:43:03;;;;;;;10.50;10.20;;;29.20;99.90;;;;;;5030879;28;20250;-77
2023/06/24 11:45:32;;;;;;;10.52;10.23;;;29.60;99.90;;;;;;5039400;28;20231;-78
2023/06/24 11:48:06;;;;;;;10.65;10.35;;;29.80;99.90;;;;;;5031063;28;20235;-78
2023/06/24 11:50:34;;;;;;;11.40;11.10;;;29.90;99.90;;;;;;5042836;28;20435;-78
2023/06/24 11:53:01;;;;;;;10.70;10.40;;;29.80;99.90;;;;;;5043967;28;20231;-78
2023/06/24 11:55:29;;;;;;;10.70;10.40;;;29.90;99.90;;;;;;5042074;28;20231;-78
2023/06/24 11:58:01;;;;;;;10.80;10.50;;;30.40;99.90;;;;;;5042962;28;20237;-78
2023/06/24 12:00:30;;;;;;;10.80;10.50;;;30.70;99.90;;;;;;5044466;28;20506;-78
2023/06/24 12:02:59;;;;;;;10.88;10.57;;;31.10;99.90;;;;;;5044288;28;20227;-78
2023/06/24 12:05:29;;;;;;;10.75;10.45;;;31.20;99.90;;;;;;5046977;28;20242;-79
2023/06/24 12:07:59;;;;;;;10.77;10.48;;;31.30;99.90;;;;;;5054800;28;20291;-78
2023/06/24 12:10:27;;;;;;;10.70;10.40;;;31.40;99.90;;;;;;5053907;28;20242;-78
2023/06/24 12:12:54;;;;;;;10.80;10.50;;;31.40;99.90;;;;;;5048552;28;20228;-78
2023/06/24 12:15:24;;;;;;;10.35;10.05;;;31.40;99.90;;;;;;5044711;28;20263;-79
2023/06/24 12:17:51;;;;;;;10.80;10.50;;;31.10;99.90;;;;;;5043754;28;20235;-78
2023/06/24 12:20:19;;;;;;;10.43;10.13;;;30.90;99.90;;;;;;5040953;28;20254;-76
2023/06/24 12:22:47;;;;;;;10.63;10.32;;;30.50;99.90;;;;;;5040825;28;20285;-76
2023/06/24 12:25:15;;;;;;;10.50;10.20;;;29.80;99.90;;;;;;5039679;28;20231;-76
2023/06/24 12:27:44;;;;;;;10.43;10.13;;;29.80;99.90;;;;;;5044039;28;20235;-77
2023/06/24 12:30:12;;;;;;;10.48;10.18;;;29.90;99.90;;;;;;5040923;28;20319;-76
2023/06/24 12:32:41;;;;;;;10.68;10.38;;;30.10;99.90;;;;;;5048712;28;20231;-77
2023/06/24 12:35:10;;;;;;;10.25;9.95;;;30.70;99.90;;;;;;5047912;28;20230;-78
2023/06/24 12:37:38;;;;;;;10.55;10.25;;;30.90;99.90;;;;;;5044194;28;20228;-78
2023/06/24 12:40:08;;;;;;;10.50;10.20;;;31.30;99.90;;;;;;5043571;28;20223;-78
2023/06/24 12:42:35;;;;;;;10.63;10.32;;;31.70;99.90;;;;;;5043760;28;20241;-78
2023/06/24 12:45:03;;;;;;;10.40;10.10;;;32.00;99.90;;;;;;5042392;28;20239;-77
2023/06/24 12:47:31;;;;;;;10.35;10.05;;;31.40;99.90;;;;;;5043192;28;20231;-77
2023/06/24 12:50:06;;;;;;;10.60;10.30;;;31.30;99.90;;;;;;5043173;28;20235;-79
2023/06/24 12:52:33;;;;;;;10.70;10.40;;;31.60;99.90;;;;;;5044604;28;21100;-78
2023/06/24 12:55:04;;;;;;;10.77;10.48;;;32.00;99.90;;;;;;5034069;28;20227;-78
2023/06/24 12:57:32;;;;;;;10.15;9.85;;;31.70;99.90;;;;;;5040896;28;20245;-76
2023/06/24 12:59:59;;;;;;;10.50;10.20;;;31.30;99.90;;;;;;5040401;28;20295;-78
2023/06/24 13:02:27;;;;;;;10.70;10.40;;;31.40;99.90;;;;;;5042015;28;20223;-80
2023/06/24 13:04:54;;;;;;;10.70;10.40;;;31.60;99.90;;;;;;5041933;28;20323;-77
2023/06/24 13:07:23;;;;;;;10.50;10.20;;;31.60;99.90;;;;;;5042481;28;20294;-78
2023/06/24 13:09:51;;;;;;;11.00;10.70;;;32.10;99.90;;;;;;5033827;28;20258;-77
2023/06/24 13:12:18;;;;;;;10.52;10.23;;;32.60;99.90;;;;;;5040398;28;20391;-77
2023/06/24 13:14:46;;;;;;;10.75;10.45;;;32.80;99.90;;;;;;5041090;28;20338;-78
2023/06/24 13:17:14;;;;;;;10.55;10.25;;;32.80;99.90;;;;;;5042502;28;20231;-79
2023/06/24 13:19:41;;;;;;;10.90;10.60;;;32.80;99.90;;;;;;5043994;28;20278;-78
2023/06/24 13:22:12;;;;;;;10.52;10.23;;;32.20;99.90;;;;;;5042511;28;20295;-78
2023/06/24 13:24:41;;;;;;;10.20;9.90;;;31.70;99.90;;;;;;5048670;28;20234;-79
2023/06/24 13:27:09;;;;;;;10.35;10.05;;;31.20;99.90;;;;;;5055514;28;20234;-78
2023/06/24 13:29:37;;;;;;;10.35;10.05;;;31.10;99.90;;;;;;5049528;28;20314;-79
2023/06/24 13:32:05;;;;;;;10.38;10.07;;;31.10;99.90;;;;;;5053438;28;20287;-77
2023/06/24 13:35:10;;;;;;;10.48;10.18;;;31.50;99.90;;;;;;5049837;28;20235;-77
2023/06/24 13:37:38;;;;;;;10.40;10.10;;;32.00;99.90;;;;;;5038164;28;20286;-78
2023/06/24 13:40:09;;;;;;;10.30;10.00;;;32.30;99.90;;;;;;5050083;28;20228;-78
2023/06/24 13:42:37;;;;;;;10.40;10.10;;;32.40;99.90;;;;;;5049196;28;20240;-77
2023/06/24 13:45:06;;;;;;;10.20;9.90;;;32.60;99.90;;;;;;5041820;28;20232;-77
2023/06/24 13:47:33;;;;;;;10.43;10.13;;;32.50;99.90;;;;;;5038648;28;20281;-76
2023/06/24 13:50:00;;;;;;;10.30;10.00;;;32.10;99.90;;;;;;5036176;28;20238;-77
2023/06/24 13:52:28;;;;;;;10.05;9.75;;;31.40;99.90;;;;;;5044490;28;20271;-78
2023/06/24 13:54:59;;;;;;;10.10;9.80;;;31.70;99.90;;;;;;5044514;28;20239;-77
2023/06/24 13:57:28;;;;;;;10.30;10.00;;;32.10;99.90;;;;;;5037546;28;20295;-77
2023/06/24 13:59:55;;;;;;;10.40;10.10;;;32.00;99.90;;;;;;5045132;28;20235;-77
2023/06/24 14:02:23;;;;;;;10.35;10.05;;;31.80;99.90;;;;;;5043834;28;20582;-77
2023/06/24 14:04:50;;;;;;;10.07;9.77;;;31.50;99.90;;;;;;5042806;28;20271;-77
2023/06/24 14:07:18;;;;;;;10.50;10.20;;;31.50;99.90;;;;;;5029274;28;20232;-78
2023/06/24 14:09:45;;;;;;;10.85;10.55;;;31.90;99.90;;;;;;5030601;28;20331;-78
2023/06/24 14:12:13;;;;;;;11.00;10.70;;;31.90;99.90;;;;;;5036605;28;20287;-78
2023/06/24 14:14:42;;;;;;;11.02;10.73;;;32.20;99.90;;;;;;5042797;28;20227;-79
2023/06/24 14:17:12;;;;;;;10.85;10.55;;;32.40;99.90;;;;;;5044124;28;20346;-79
2023/06/24 14:19:40;;;;;;;10.70;10.40;;;32.70;99.90;;;;;;5043235;28;20223;-79
2023/06/24 14:22:08;;;;;;;11.07;10.77;;;33.30;99.90;;;;;;5043574;28;20230;-79
2023/06/24 14:24:39;;;;;;;10.80;10.50;;;33.50;99.90;;;;;;5035484;28;20223;-81
2023/06/24 14:27:08;;;;;;;11.00;10.70;;;33.70;99.90;;;;;;5023338;28;20244;-80
2023/06/24 14:29:35;;;;;;;10.75;10.45;;;33.80;99.90;;;;;;5031466;28;20297;-79
2023/06/24 14:32:05;;;;;;;10.80;10.50;;;33.30;99.90;;;;;;5047878;28;20243;-78
2023/06/24 14:34:33;;;;;;;10.70;10.40;;;32.30;99.90;;;;;;5033025;28;20316;-78
2023/06/24 14:37:03;;;;;;;10.60;10.30;;;31.90;99.90;;;;;;5027061;28;20249;-81
2023/06/24 14:39:31;;;;;;;10.70;10.40;;;31.50;99.90;;;;;;5039989;28;20239;-78
2023/06/24 14:41:58;;;;;;;10.60;10.30;;;31.30;99.90;;;;;;5030192;28;20247;-77
2023/06/24 14:44:33;;;;;;;10.55;10.25;;;31.80;99.90;;;;;;5052993;22;21175;-89
2023/06/24 14:47:13;;;;;;;10.90;10.60;;;32.30;99.90;;;;;;5030894;28;20258;-89
2023/06/24 14:49:41;;;;;;;10.55;10.25;;;33.00;99.90;;;;;;5047188;28;20246;-90
2023/06/24 14:55:15;;;;;;;10.35;10.05;;;33.10;99.90;;;;;;5030819;28;20232;-90
2023/06/24 15:18:23;;;;;;;10.38;10.07;;;34.40;99.90;;;;;;5310454;22;20287;-89
2023/06/24 15:21:21;;;;;;;10.35;10.05;;;34.50;99.90;;;;;;5024393;28;20286;-90
2023/06/24 15:26:56;;;;;;;10.35;10.05;;;34.50;99.90;;;;;;5022121;28;20230;-88
2023/06/24 15:29:42;;;;;;;10.20;9.90;;;34.10;99.90;;;;;;5022680;28;20239;-88
2023/06/24 15:33:09;;;;;;;10.38;10.07;;;34.00;99.90;;;;;;5023619;28;20223;-89
2023/06/24 15:36:17;;;;;;;10.10;9.80;;;34.20;99.90;;;;;;5022404;28;20327;-89
2023/06/24 15:38:52;;;;;;;10.43;10.13;;;34.20;99.90;;;;;;5026027;28;20227;-87
2023/06/24 15:41:24;;;;;;;10.40;10.10;;;34.20;99.90;;;;;;5023019;28;20242;-89
2023/06/24 15:43:55;;;;;;;10.30;10.00;;;34.30;99.90;;;;;;5022168;28;20216;-89
2023/06/24 18:06:46;;;;;;;9.20;9.00;;;32.50;99.90;;;;;;4916444;28;20226;-79
2023/06/24 18:09:16;;;;;;;9.60;9.30;;;32.40;99.90;;;;;;4948404;28;20277;-80
2023/06/24 18:11:46;;;;;;;9.60;9.30;;;32.10;99.90;;;;;;5039983;28;20255;-81
2023/06/24 18:17:31;;;;;;;9.60;9.30;;;31.50;99.90;;;;;;5029213;28;20400;-85
2023/06/24 18:20:10;;;;;;;9.10;8.90;;;31.30;99.90;;;;;;5042609;28;20272;-86
2023/06/24 18:22:56;;;;;;;9.40;9.10;;;31.10;99.90;;;;;;5042617;28;20310;-86
2023/06/24 18:26:13;;;;;;;;;;;;;;;;;;;;;
2023/06/24 18:28:58;;;;;;;9.52;9.23;;;30.80;99.90;;;;;;5031384;28;20237;-87
2023/06/24 18:34:12;;;;;;;9.60;9.30;;;30.50;99.90;;;;;;5041445;28;20231;-85
2023/06/24 18:39:44;;;;;;;9.40;9.10;;;30.30;99.90;;;;;;5041730;28;20331;-86
2023/06/24 19:28:17;;;;;;;9.70;9.40;;;26.50;99.90;;;;;;4931535;29;20244;-86
2023/06/24 19:30:45;;;;;;;9.57;9.27;;;26.30;99.90;;;;;;4949028;28;20247;-84
2023/06/24 19:33:17;;;;;;;9.40;9.10;;;26.20;99.90;;;;;;5025451;28;20259;-84